KFSE

Fosston Municipal Airport

Fosston, Minnesota, USA
METAR KFSE 151856Z AUTO 32004KT 10SM CLR M15/M23 A3012 RMK AO2
Observed Flight Rules
Feb-15 @ 18:56 UTC (18 minutes ago) Visual Flight Rules
Wind Visibility Clouds
320° at 4 knots 10 miles
  • Clear skies
Temperatures Readings
Current -15°C / 5°F
Dewpoint -23°C / -9°F
Humidity 51%
Altimeter 30.12" Hg
Pressure 1020.02 hPa
Elevation 389
METAR KFSE 151856Z AUTO 32004KT 10SM CLR M15/M23 A3012 RMK AO2
Observed Flight Rules
Feb-15 @ 18:56 UTC
(18 minutes ago)
VFR
Wind Visibility
320° at 4 knots 10 miles
Clouds
  • Clear skies
Temperature Dewpoint
-15°C / 5°F -23°C / -9°F
Humidity Altimeter Pressure
51% 30.12" Hg 1020.02 hPa